Terminal Aerodrome Forecast
Issued by NWS

Home | Current Version | Previous Version | Text Only | Print | Product List | Glossary On
Versions: 1 2 3 4 5 6 7 8 9 10 11 12 13 14 15 16 17 18 19
000
FTUS43 KGRR 291120
TAFMKG
TAF
KMKG 291120Z 2912/3012 13008KT P6SM BKN090
     FM291400 18012G20KT P6SM VCSH SCT035 BKN100
     FM291700 21012G22KT P6SM VCTS BKN040CB
     FM300000 19006KT P6SM OVC100
     FM300800 21008KT P6SM VCSH OVC050=

USA.gov is the U.S. government's official web portal to all federal, state and local government web resources and services.